Time;durP1;ratioP1;P1;durP2;ratioP2;P2;SDS_P1;SDS_P2;PMS_P1;PMS_P2;Temp;Humidity;BMP_temperature;BMP_pressure;BME280_temperature;BME280_humidity;BME280_pressure;Samples;Min_cycle;Max_cycle;Signal;HPM_P1;HPM_P2
2021/03/10 00:02:25;;;;;;;25.77;14.60;;;6.50;63.00;;;;;;5013396;28;20440;-72
2021/03/10 00:04:51;;;;;;;22.00;15.33;;;6.50;63.30;;;;;;5015967;28;20487;-73
2021/03/10 00:07:16;;;;;;;22.87;15.97;;;6.40;64.90;;;;;;5013820;28;20851;-72
2021/03/10 00:09:42;;;;;;;25.73;16.07;;;6.30;66.10;;;;;;5013628;28;20750;-72
2021/03/10 00:12:08;;;;;;;21.77;14.90;;;6.40;65.80;;;;;;5013839;28;20384;-73
2021/03/10 00:14:33;;;;;;;27.50;15.02;;;6.40;65.40;;;;;;5013656;28;20388;-72
2021/03/10 00:17:00;;;;;;;26.47;15.20;;;6.50;64.20;;;;;;5024248;28;20562;-72
2021/03/10 00:19:26;;;;;;;24.60;14.40;;;6.40;65.30;;;;;;5033174;28;20849;-72
2021/03/10 00:21:51;;;;;;;24.77;14.83;;;6.40;65.90;;;;;;5033243;28;20489;-72
2021/03/10 00:24:17;;;;;;;28.80;15.17;;;6.50;64.60;;;;;;5033097;28;20473;-72
2021/03/10 00:26:44;;;;;;;24.38;14.20;;;6.50;65.60;;;;;;5033238;28;20390;-73
2021/03/10 00:29:10;;;;;;;21.98;13.90;;;6.50;64.80;;;;;;5032791;28;20383;-73
2021/03/10 00:31:36;;;;;;;25.05;15.05;;;6.50;64.30;;;;;;5021948;28;20405;-71
2021/03/10 00:34:02;;;;;;;22.25;13.82;;;6.50;64.20;;;;;;5013031;28;20399;-73
2021/03/10 00:36:27;;;;;;;23.63;15.37;;;6.40;64.40;;;;;;5014797;28;20404;-73
2021/03/10 00:38:53;;;;;;;20.97;13.40;;;6.40;64.10;;;;;;5015002;28;20489;-73
2021/03/10 00:41:18;;;;;;;24.40;14.03;;;6.40;65.30;;;;;;5014990;28;20499;-72
2021/03/10 00:43:44;;;;;;;21.92;14.27;;;6.40;64.40;;;;;;5014577;28;20413;-72
2021/03/10 00:46:09;;;;;;;22.48;14.65;;;6.30;64.40;;;;;;5026772;28;20406;-73
2021/03/10 00:48:35;;;;;;;25.83;15.10;;;6.30;64.70;;;;;;5033944;28;20473;-72
2021/03/10 00:51:01;;;;;;;27.00;16.30;;;6.20;65.50;;;;;;5032691;28;20433;-72
2021/03/10 00:53:26;;;;;;;31.38;18.25;;;6.30;65.00;;;;;;5032781;28;20872;-72
2021/03/10 00:55:52;;;;;;;25.63;16.90;;;6.40;63.60;;;;;;5031449;28;20400;-73
2021/03/10 00:58:17;;;;;;;29.60;17.27;;;6.30;63.50;;;;;;5032868;28;20387;-72
2021/03/10 01:00:43;;;;;;;26.27;17.95;;;6.20;65.20;;;;;;5029109;28;20954;-72
2021/03/10 01:03:09;;;;;;;27.10;17.60;;;6.00;66.90;;;;;;5021405;28;20413;-72
2021/03/10 01:05:34;;;;;;;28.23;17.07;;;5.80;68.90;;;;;;5012642;28;20395;-72
2021/03/10 01:08:00;;;;;;;26.50;17.00;;;5.80;71.50;;;;;;5012516;28;20393;-72
2021/03/10 01:10:25;;;;;;;29.00;17.60;;;5.70;71.60;;;;;;5012699;28;20396;-72
2021/03/10 01:12:51;;;;;;;28.05;18.10;;;5.60;72.80;;;;;;5012746;28;20801;-72
2021/03/10 01:15:19;;;;;;;26.95;17.30;;;5.50;73.80;;;;;;5006412;28;20394;-72
2021/03/10 01:17:45;;;;;;;27.80;17.48;;;5.60;73.80;;;;;;5032300;28;20884;-72
2021/03/10 01:20:14;;;;;;;25.48;16.08;;;5.70;72.70;;;;;;5014122;28;20394;-72
2021/03/10 01:22:40;;;;;;;24.65;15.52;;;6.00;69.50;;;;;;5032229;28;20766;-73
2021/03/10 01:25:07;;;;;;;26.77;16.20;;;6.10;67.70;;;;;;5032385;28;20398;-73
2021/03/10 01:27:33;;;;;;;27.52;17.08;;;6.10;67.10;;;;;;5032219;28;20390;-73
2021/03/10 01:29:58;;;;;;;22.60;15.80;;;6.10;67.30;;;;;;5028351;28;20865;-72
2021/03/10 01:32:24;;;;;;;21.90;15.98;;;6.10;67.30;;;;;;5031869;28;20868;-72
2021/03/10 01:34:50;;;;;;;23.95;16.00;;;6.20;67.20;;;;;;5032048;28;20395;-72
2021/03/10 01:37:16;;;;;;;20.83;15.38;;;6.20;66.20;;;;;;5028479;28;20794;-72
2021/03/10 01:39:42;;;;;;;26.45;15.88;;;6.20;65.80;;;;;;5030047;28;20449;-72
2021/03/10 01:42:08;;;;;;;23.07;15.70;;;6.20;65.70;;;;;;4994321;28;20411;-73
2021/03/10 01:44:34;;;;;;;24.40;15.05;;;6.20;64.80;;;;;;5013984;28;20388;-73
2021/03/10 01:47:00;;;;;;;23.25;15.13;;;6.20;64.20;;;;;;5011983;28;20389;-71
2021/03/10 01:49:27;;;;;;;20.83;16.00;;;6.20;64.50;;;;;;5011759;28;20395;-72
2021/03/10 01:51:53;;;;;;;21.38;15.50;;;6.10;65.50;;;;;;5011886;28;20432;-72
2021/03/10 01:54:19;;;;;;;26.58;16.52;;;6.00;65.60;;;;;;5011614;28;20819;-73
2021/03/10 01:56:45;;;;;;;22.90;16.03;;;6.10;65.40;;;;;;5011731;28;20375;-71
2021/03/10 01:59:11;;;;;;;24.17;16.27;;;6.10;64.80;;;;;;5022923;28;20409;-72
2021/03/10 02:01:37;;;;;;;25.35;17.38;;;6.10;64.30;;;;;;5031348;28;20403;-72
2021/03/10 02:04:07;;;;;;;25.75;17.80;;;6.00;65.10;;;;;;5016042;28;20415;-72
2021/03/10 02:07:03;;;;;;;25.40;17.20;;;5.90;67.10;;;;;;5011599;28;20408;-72
2021/03/10 02:09:32;;;;;;;21.33;15.90;;;5.80;67.70;;;;;;4993749;28;20389;-72
2021/03/10 02:12:58;;;;;;;24.85;16.38;;;5.80;67.50;;;;;;5010900;28;20488;-72
2021/03/10 02:15:29;;;;;;;24.42;15.02;;;5.90;67.10;;;;;;4970126;28;20400;-71
2021/03/10 02:18:06;;;;;;;23.97;15.43;;;5.90;66.40;;;;;;4970132;28;20476;-72
2021/03/10 02:20:38;;;;;;;22.67;16.30;;;5.80;67.90;;;;;;4985596;28;20458;-72
2021/03/10 02:23:29;;;;;;;25.50;16.73;;;5.80;69.30;;;;;;4991896;28;20437;-72
2021/03/10 02:26:12;;;;;;;22.33;15.60;;;5.60;69.90;;;;;;4993095;28;20741;-72
2021/03/10 02:28:39;;;;;;;26.08;15.93;;;5.60;70.40;;;;;;4991640;28;20529;-72
2021/03/10 02:31:07;;;;;;;24.45;15.57;;;5.60;71.40;;;;;;4991849;28;20394;-72
2021/03/10 02:33:35;;;;;;;20.77;14.48;;;5.70;70.80;;;;;;4991553;28;20419;-70
2021/03/10 02:36:11;;;;;;;24.20;14.98;;;5.70;68.40;;;;;;4991854;28;20835;-72
2021/03/10 02:38:48;;;;;;;21.38;14.25;;;5.80;67.10;;;;;;4991726;28;20710;-72
2021/03/10 02:41:15;;;;;;;20.98;13.77;;;6.00;64.50;;;;;;5006765;28;20771;-73
2021/03/10 02:43:41;;;;;;;23.05;14.73;;;5.90;64.90;;;;;;4991394;28;20397;-72
2021/03/10 02:46:08;;;;;;;22.38;14.40;;;5.90;65.60;;;;;;5003806;28;20393;-71
2021/03/10 02:48:33;;;;;;;23.13;14.07;;;5.80;66.40;;;;;;5010938;28;20435;-71
2021/03/10 02:51:00;;;;;;;20.52;13.38;;;5.90;68.00;;;;;;5012990;28;20958;-72
2021/03/10 02:53:26;;;;;;;14.88;11.90;;;5.80;67.90;;;;;;5010824;28;20462;-72
2021/03/10 02:55:52;;;;;;;18.50;13.23;;;5.70;70.60;;;;;;5010984;28;20432;-72
2021/03/10 02:58:18;;;;;;;22.95;14.30;;;5.60;69.80;;;;;;5010880;28;20392;-72
2021/03/10 03:00:44;;;;;;;19.80;13.55;;;5.50;70.90;;;;;;5012689;28;20411;-71
2021/03/10 03:03:09;;;;;;;20.87;13.90;;;5.50;72.40;;;;;;5010618;28;20389;-72
2021/03/10 03:05:35;;;;;;;17.57;12.80;;;5.40;72.50;;;;;;5010753;28;20423;-72
2021/03/10 03:08:02;;;;;;;21.10;12.45;;;5.40;72.90;;;;;;5010926;28;20464;-72
2021/03/10 03:10:46;;;;;;;15.95;12.20;;;5.30;72.60;;;;;;5010310;28;20764;-72
2021/03/10 03:13:14;;;;;;;17.35;12.77;;;5.20;72.40;;;;;;5001598;28;20405;-71
2021/03/10 03:15:43;;;;;;;15.43;12.00;;;5.10;72.80;;;;;;5010696;28;21027;-72
2021/03/10 03:18:09;;;;;;;18.45;12.93;;;5.00;74.50;;;;;;5010506;28;20455;-72
2021/03/10 03:20:35;;;;;;;16.90;13.18;;;4.80;75.70;;;;;;5015637;28;20407;-72
2021/03/10 03:23:04;;;;;;;17.27;12.93;;;4.80;77.00;;;;;;5014429;28;20471;-72
2021/03/10 03:25:38;;;;;;;15.52;12.50;;;4.70;77.70;;;;;;5014517;28;20744;-72
2021/03/10 03:28:05;;;;;;;19.33;13.25;;;4.60;79.60;;;;;;5014384;28;20925;-72
2021/03/10 03:30:37;;;;;;;18.87;13.53;;;4.60;79.70;;;;;;5014109;28;20468;-72
2021/03/10 03:33:12;;;;;;;18.58;13.30;;;4.50;80.30;;;;;;4997492;28;20407;-72
2021/03/10 03:35:38;;;;;;;24.95;15.77;;;4.40;81.40;;;;;;4998412;28;20792;-73
2021/03/10 03:38:05;;;;;;;20.70;15.32;;;4.30;82.90;;;;;;4997968;28;20465;-73
2021/03/10 03:40:33;;;;;;;24.73;16.60;;;4.30;84.50;;;;;;5007381;28;20503;-72
2021/03/10 03:42:58;;;;;;;25.70;16.87;;;4.40;85.20;;;;;;5021086;28;20423;-72
2021/03/10 03:45:24;;;;;;;26.88;17.15;;;4.40;85.50;;;;;;5017169;28;20483;-72
2021/03/10 03:47:55;;;;;;;25.92;16.65;;;4.40;85.40;;;;;;5017327;28;20790;-72
2021/03/10 03:50:26;;;;;;;21.35;14.68;;;4.40;85.20;;;;;;5016126;28;20388;-72
2021/03/10 03:52:52;;;;;;;24.85;16.60;;;4.40;85.50;;;;;;5034080;28;20391;-72
2021/03/10 03:55:17;;;;;;;27.40;17.63;;;4.40;86.00;;;;;;5036351;28;20383;-72
2021/03/10 03:57:43;;;;;;;26.33;17.07;;;4.40;86.80;;;;;;5037359;28;20379;-73
2021/03/10 04:00:13;;;;;;;24.77;16.40;;;4.40;87.30;;;;;;5033912;28;20900;-72
2021/03/10 04:02:38;;;;;;;25.98;16.90;;;4.40;86.70;;;;;;5026667;28;20504;-72
2021/03/10 04:05:05;;;;;;;24.65;16.35;;;4.30;86.40;;;;;;5013612;28;20905;-72
2021/03/10 04:07:30;;;;;;;26.90;17.00;;;4.50;87.90;;;;;;5013776;28;20408;-72
2021/03/10 04:09:56;;;;;;;26.90;16.83;;;4.60;87.50;;;;;;5013347;28;20389;-72
2021/03/10 04:12:22;;;;;;;25.63;17.60;;;4.60;86.20;;;;;;5027623;28;20410;-72
2021/03/10 04:14:47;;;;;;;25.80;17.33;;;4.60;86.80;;;;;;5015969;28;20402;-73
2021/03/10 04:17:14;;;;;;;24.80;17.90;;;4.60;87.10;;;;;;5033260;28;20399;-72
2021/03/10 04:19:40;;;;;;;26.33;17.70;;;4.60;86.70;;;;;;5032886;28;20383;-71
2021/03/10 04:22:06;;;;;;;26.15;17.70;;;4.60;86.60;;;;;;5012026;28;20413;-72
2021/03/10 04:24:31;;;;;;;26.40;17.77;;;4.70;86.20;;;;;;5033275;28;20391;-71
2021/03/10 04:26:58;;;;;;;26.60;17.70;;;4.60;85.80;;;;;;5033219;28;20387;-72
2021/03/10 04:29:24;;;;;;;22.45;16.42;;;4.70;85.60;;;;;;5032849;28;20486;-72
2021/03/10 04:31:50;;;;;;;24.23;17.00;;;4.70;85.60;;;;;;5029327;28;20482;-72
2021/03/10 04:34:15;;;;;;;24.57;17.23;;;4.70;85.70;;;;;;5033002;28;20395;-72
2021/03/10 04:36:41;;;;;;;23.93;16.20;;;4.70;85.70;;;;;;5033245;28;20387;-72
2021/03/10 04:39:06;;;;;;;22.57;16.40;;;4.80;85.90;;;;;;5029965;28;20431;-73
2021/03/10 04:41:32;;;;;;;25.23;17.57;;;4.90;86.60;;;;;;5015718;28;20435;-72
2021/03/10 04:43:57;;;;;;;23.65;16.73;;;4.90;86.80;;;;;;5013256;28;20428;-71
2021/03/10 04:46:23;;;;;;;29.25;18.23;;;5.00;86.50;;;;;;5013085;28;20401;-71
2021/03/10 04:48:48;;;;;;;25.25;16.55;;;5.00;86.00;;;;;;5012653;28;20385;-71
2021/03/10 04:51:14;;;;;;;25.27;17.35;;;5.20;84.50;;;;;;5015156;28;20412;-72
2021/03/10 04:53:40;;;;;;;24.00;16.52;;;5.20;83.10;;;;;;5012773;28;20420;-72
2021/03/10 04:56:05;;;;;;;22.95;17.00;;;5.20;82.20;;;;;;5012655;28;20376;-72
2021/03/10 04:58:31;;;;;;;24.75;17.05;;;5.10;81.10;;;;;;5012571;28;20399;-72
2021/03/10 05:00:56;;;;;;;26.90;16.50;;;5.10;81.60;;;;;;5014743;28;20760;-71
2021/03/10 05:03:22;;;;;;;24.50;16.43;;;5.10;81.30;;;;;;5012542;28;20384;-72
2021/03/10 05:05:47;;;;;;;24.87;16.20;;;5.10;81.70;;;;;;5012492;28;20420;-73
2021/03/10 05:08:13;;;;;;;27.40;17.37;;;5.20;81.70;;;;;;5012619;28;20381;-72
2021/03/10 05:10:39;;;;;;;24.43;16.80;;;5.20;81.90;;;;;;5023544;28;20398;-71
2021/03/10 05:13:04;;;;;;;26.70;17.05;;;5.20;82.40;;;;;;5032454;28;20383;-72
2021/03/10 05:15:30;;;;;;;25.17;17.40;;;5.20;81.70;;;;;;5032510;28;20453;-72
2021/03/10 05:17:55;;;;;;;27.02;17.00;;;5.20;82.00;;;;;;5032129;28;20426;-72
2021/03/10 05:20:21;;;;;;;25.85;17.17;;;5.20;81.30;;;;;;5019307;28;20878;-72
2021/03/10 05:22:46;;;;;;;25.27;17.65;;;5.30;80.60;;;;;;5012448;28;20467;-72
2021/03/10 05:25:12;;;;;;;23.47;17.07;;;5.30;80.20;;;;;;5013844;28;20479;-71
2021/03/10 05:27:38;;;;;;;23.60;16.63;;;5.30;80.00;;;;;;5030350;28;20454;-72
2021/03/10 05:30:07;;;;;;;23.23;16.58;;;5.30;79.70;;;;;;5031737;28;20869;-72
2021/03/10 05:32:32;;;;;;;23.63;16.88;;;5.30;79.70;;;;;;5031836;28;20379;-71
2021/03/10 05:34:58;;;;;;;23.30;16.63;;;5.40;78.80;;;;;;5031822;28;20442;-73
2021/03/10 05:37:24;;;;;;;25.70;17.38;;;5.40;79.40;;;;;;5028539;28;20406;-72
2021/03/10 05:39:49;;;;;;;27.45;17.23;;;5.50;77.70;;;;;;5028905;28;20386;-71
2021/03/10 05:42:16;;;;;;;23.17;16.20;;;5.50;76.00;;;;;;5011057;28;20419;-72
2021/03/10 05:44:41;;;;;;;26.75;17.17;;;5.50;75.90;;;;;;5012474;28;20385;-71
2021/03/10 05:47:08;;;;;;;25.23;17.30;;;5.50;76.10;;;;;;5014138;28;20401;-73
2021/03/10 05:49:34;;;;;;;25.93;17.37;;;5.60;75.50;;;;;;5011315;28;20381;-73
2021/03/10 05:52:03;;;;;;;27.15;17.73;;;5.60;75.70;;;;;;5011895;28;20450;-72
2021/03/10 05:54:31;;;;;;;23.95;17.00;;;5.50;76.30;;;;;;5011757;28;20814;-73
2021/03/10 05:57:00;;;;;;;30.17;19.90;;;5.60;75.30;;;;;;5012840;28;20524;-72
2021/03/10 05:59:27;;;;;;;28.95;18.85;;;5.60;74.80;;;;;;5011606;28;20397;-72
2021/03/10 06:01:54;;;;;;;28.23;18.83;;;5.60;75.40;;;;;;5011460;28;20413;-72
2021/03/10 06:04:19;;;;;;;30.43;19.50;;;5.60;75.50;;;;;;5011268;28;20388;-72
2021/03/10 06:06:45;;;;;;;31.33;18.73;;;5.50;76.70;;;;;;5013146;28;20405;-72
2021/03/10 06:09:21;;;;;;;26.42;17.58;;;5.60;74.90;;;;;;4993231;28;20396;-73
2021/03/10 06:11:59;;;;;;;27.42;17.40;;;5.70;76.00;;;;;;5010969;28;20385;-72
2021/03/10 06:14:26;;;;;;;26.23;17.38;;;5.80;74.50;;;;;;5011065;28;20393;-72
2021/03/10 06:17:09;;;;;;;27.10;18.10;;;5.80;74.20;;;;;;5017946;28;20459;-72
2021/03/10 06:19:45;;;;;;;26.75;18.38;;;5.80;73.80;;;;;;5030231;28;20397;-72
2021/03/10 06:22:12;;;;;;;25.20;18.33;;;5.80;73.60;;;;;;5030150;28;20490;-72
2021/03/10 06:24:38;;;;;;;28.70;18.55;;;5.70;74.30;;;;;;5030568;28;20440;-72
2021/03/10 06:27:04;;;;;;;25.42;17.90;;;5.60;75.20;;;;;;5026649;28;20395;-72
2021/03/10 06:29:30;;;;;;;32.97;19.83;;;5.60;76.10;;;;;;5030657;28;20865;-73
2021/03/10 06:32:07;;;;;;;26.10;19.02;;;5.70;75.10;;;;;;5030672;28;20395;-73
2021/03/10 06:34:48;;;;;;;28.63;19.60;;;5.60;75.70;;;;;;5030672;28;20450;-72
2021/03/10 06:37:27;;;;;;;27.92;18.60;;;5.70;75.80;;;;;;5026849;28;20399;-72
2021/03/10 06:39:53;;;;;;;32.07;19.23;;;5.60;76.50;;;;;;5026782;28;20415;-72
2021/03/10 06:42:19;;;;;;;30.75;20.15;;;5.70;76.40;;;;;;5010569;28;20755;-72
2021/03/10 06:44:50;;;;;;;29.92;19.65;;;5.70;76.20;;;;;;5010230;28;20420;-73
2021/03/10 06:47:16;;;;;;;26.80;19.55;;;5.70;75.60;;;;;;4994433;28;20479;-73
2021/03/10 06:49:54;;;;;;;31.00;21.00;;;5.70;75.90;;;;;;4992444;28;20979;-71
2021/03/10 06:52:20;;;;;;;30.75;18.60;;;5.80;75.40;;;;;;5010554;28;20822;-72
2021/03/10 06:54:57;;;;;;;34.95;21.70;;;5.90;75.20;;;;;;5009702;28;20859;-72
2021/03/10 06:57:24;;;;;;;31.10;21.02;;;5.90;74.90;;;;;;5020299;28;20456;-71
2021/03/10 06:59:54;;;;;;;29.83;19.63;;;5.90;74.10;;;;;;5030640;28;20826;-73
2021/03/10 07:02:23;;;;;;;27.02;20.00;;;5.90;73.70;;;;;;5032093;28;20431;-72
2021/03/10 07:04:57;;;;;;;32.92;21.50;;;6.00;73.80;;;;;;5013805;28;20381;-72
2021/03/10 07:07:24;;;;;;;30.75;20.90;;;6.10;73.00;;;;;;5024305;28;20480;-72
2021/03/10 07:09:51;;;;;;;34.13;20.83;;;6.00;73.10;;;;;;5029528;28;20453;-73
2021/03/10 07:12:19;;;;;;;40.55;22.50;;;6.00;74.10;;;;;;5030195;28;20387;-72
2021/03/10 07:14:46;;;;;;;32.35;21.48;;;6.10;74.00;;;;;;5029772;28;20391;-74
2021/03/10 07:17:14;;;;;;;36.15;22.40;;;6.10;73.40;;;;;;5026402;28;20401;-73
2021/03/10 07:19:41;;;;;;;35.87;21.90;;;6.20;71.90;;;;;;5029730;28;20487;-72
2021/03/10 07:22:10;;;;;;;37.90;21.95;;;6.20;72.30;;;;;;5029667;28;20489;-72
2021/03/10 07:24:47;;;;;;;39.25;24.02;;;6.20;71.60;;;;;;5029943;28;20387;-73
2021/03/10 07:27:15;;;;;;;35.63;22.40;;;6.30;72.30;;;;;;5026427;28;20453;-73
2021/03/10 07:29:42;;;;;;;33.97;22.17;;;6.30;71.90;;;;;;5029424;28;20389;-72
2021/03/10 07:32:09;;;;;;;36.25;22.33;;;6.30;71.80;;;;;;5011538;28;20399;-73
2021/03/10 07:34:36;;;;;;;38.08;23.17;;;6.30;71.50;;;;;;5029503;28;20403;-73
2021/03/10 07:37:14;;;;;;;33.55;23.40;;;6.30;72.30;;;;;;5020342;28;20411;-73
2021/03/10 07:39:40;;;;;;;37.45;22.92;;;6.40;71.70;;;;;;5011075;28;20469;-73
2021/03/10 07:42:10;;;;;;;36.93;23.90;;;6.50;71.30;;;;;;5009312;28;20441;-72
2021/03/10 07:44:36;;;;;;;32.33;22.27;;;6.60;70.90;;;;;;5011804;28;20397;-73
2021/03/10 07:47:09;;;;;;;37.30;24.00;;;6.60;70.50;;;;;;5025643;28;20841;-72
2021/03/10 07:49:35;;;;;;;37.17;22.87;;;6.60;70.30;;;;;;5010805;28;20389;-74
2021/03/10 07:52:19;;;;;;;37.22;23.02;;;6.70;70.80;;;;;;5011323;28;20740;-73
2021/03/10 07:54:56;;;;;;;35.83;23.20;;;6.70;69.50;;;;;;5012017;28;20724;-74
2021/03/10 07:57:22;;;;;;;39.20;23.85;;;6.70;70.00;;;;;;5011510;28;20393;-72
2021/03/10 07:59:59;;;;;;;39.83;24.90;;;6.70;69.50;;;;;;5013917;28;20381;-71
2021/03/10 08:02:26;;;;;;;43.17;25.00;;;6.80;69.00;;;;;;5010486;28;20445;-71
2021/03/10 08:04:53;;;;;;;43.28;24.63;;;6.90;70.30;;;;;;5010614;28;20900;-71
2021/03/10 08:07:24;;;;;;;41.67;25.65;;;7.00;67.70;;;;;;5014104;28;20451;-71
2021/03/10 08:09:51;;;;;;;42.72;25.90;;;7.00;68.20;;;;;;5014014;28;20389;-72
2021/03/10 08:12:19;;;;;;;39.00;25.30;;;7.00;68.00;;;;;;5013634;28;20467;-71
2021/03/10 08:14:46;;;;;;;43.85;26.92;;;7.10;67.60;;;;;;5013607;28;20388;-71
2021/03/10 08:17:22;;;;;;;42.15;26.67;;;7.10;67.10;;;;;;5013180;28;20459;-72
2021/03/10 08:20:00;;;;;;;41.08;27.67;;;7.20;66.70;;;;;;5013577;28;20416;-73
2021/03/10 08:22:28;;;;;;;43.05;27.27;;;7.30;66.30;;;;;;5007568;28;20459;-72
2021/03/10 08:24:56;;;;;;;43.55;26.33;;;7.50;65.00;;;;;;5011915;28;20401;-73
2021/03/10 08:27:39;;;;;;;51.33;28.07;;;7.70;64.00;;;;;;5011459;28;20455;-73
2021/03/10 08:30:09;;;;;;;45.33;26.75;;;7.90;59.60;;;;;;5008855;28;20400;-72
2021/03/10 08:32:36;;;;;;;44.20;27.00;;;7.90;59.00;;;;;;5031685;28;20407;-73
2021/03/10 08:35:14;;;;;;;48.28;28.55;;;8.00;58.90;;;;;;5033251;28;20387;-72
2021/03/10 08:37:42;;;;;;;43.60;27.98;;;8.00;57.90;;;;;;5012118;28;20484;-73
2021/03/10 08:40:10;;;;;;;42.53;27.85;;;8.10;58.00;;;;;;5008619;28;20413;-72
2021/03/10 08:42:37;;;;;;;46.80;27.80;;;8.20;57.40;;;;;;5003291;28;20820;-72
2021/03/10 08:45:06;;;;;;;47.92;29.60;;;8.20;56.60;;;;;;5032910;28;20394;-71
2021/03/10 08:47:32;;;;;;;51.65;29.55;;;8.30;56.70;;;;;;5014826;28;20405;-72
2021/03/10 08:49:59;;;;;;;48.87;29.97;;;8.30;55.70;;;;;;5009951;28;20412;-73
2021/03/10 08:52:27;;;;;;;46.87;28.30;;;8.40;55.00;;;;;;5013569;28;20403;-73
2021/03/10 08:55:03;;;;;;;49.87;30.00;;;8.50;54.70;;;;;;5009911;28;20408;-72
2021/03/10 08:57:32;;;;;;;47.55;29.73;;;8.60;53.40;;;;;;5011231;28;20850;-72
2021/03/10 08:59:59;;;;;;;47.78;29.27;;;8.70;52.50;;;;;;5013428;28;20486;-72
2021/03/10 09:02:35;;;;;;;57.42;30.45;;;8.90;51.70;;;;;;5001405;28;20778;-72
2021/03/10 09:05:03;;;;;;;53.30;32.30;;;9.00;50.60;;;;;;5009518;28;20385;-72
2021/03/10 09:07:29;;;;;;;54.70;32.38;;;8.90;50.80;;;;;;5021991;28;20408;-73
2021/03/10 09:10:00;;;;;;;56.05;31.15;;;9.00;51.00;;;;;;5014095;28;20407;-72
2021/03/10 09:12:27;;;;;;;55.28;31.85;;;9.10;49.20;;;;;;5002303;28;20414;-75
2021/03/10 09:14:53;;;;;;;53.75;32.17;;;9.20;49.10;;;;;;4998553;28;20985;-73
2021/03/10 09:17:29;;;;;;;55.70;32.15;;;9.30;48.80;;;;;;5002640;28;20515;-74
2021/03/10 09:19:55;;;;;;;51.60;32.40;;;9.40;48.10;;;;;;5004686;28;20415;-73
2021/03/10 09:22:23;;;;;;;55.75;32.42;;;9.40;47.10;;;;;;5010414;28;20771;-72
2021/03/10 09:25:05;;;;;;;51.85;32.30;;;9.40;47.80;;;;;;5011166;28;20405;-72
2021/03/10 09:27:32;;;;;;;58.35;34.67;;;9.50;46.60;;;;;;5011975;28;20391;-72
2021/03/10 09:30:04;;;;;;;57.50;34.67;;;9.40;47.40;;;;;;5010311;28;20404;-76
2021/03/10 09:32:41;;;;;;;55.72;33.33;;;9.50;46.90;;;;;;5010906;28;20798;-72
2021/03/10 09:35:33;;;;;;;60.03;34.22;;;9.60;46.70;;;;;;5010496;28;20422;-73
2021/03/10 09:38:02;;;;;;;59.20;34.15;;;9.90;45.50;;;;;;5004579;28;20404;-73
2021/03/10 09:40:49;;;;;;;54.15;33.25;;;9.90;44.40;;;;;;5008333;28;20412;-73
2021/03/10 09:43:17;;;;;;;57.95;34.28;;;10.00;44.30;;;;;;5007534;28;20409;-75
2021/03/10 09:45:45;;;;;;;56.40;34.03;;;10.10;43.50;;;;;;5010847;28;20405;-74
2021/03/10 09:48:14;;;;;;;58.90;35.55;;;10.10;41.80;;;;;;5009528;28;20496;-72
2021/03/10 09:50:46;;;;;;;58.83;33.35;;;10.20;41.60;;;;;;5005480;28;20459;-72
2021/03/10 09:53:15;;;;;;;64.53;35.00;;;10.30;42.10;;;;;;5000819;28;20408;-71
2021/03/10 09:55:41;;;;;;;60.77;34.13;;;10.50;39.80;;;;;;5010795;28;20450;-74
2021/03/10 09:58:09;;;;;;;56.45;33.22;;;10.50;39.50;;;;;;5010916;28;20987;-72
2021/03/10 10:00:36;;;;;;;57.47;34.17;;;10.50;38.70;;;;;;5010988;28;20393;-72
2021/03/10 10:03:02;;;;;;;53.60;32.17;;;10.60;38.30;;;;;;5010279;28;20413;-71
2021/03/10 10:05:34;;;;;;;56.05;32.20;;;10.60;38.90;;;;;;5010827;28;20408;-72
2021/03/10 10:08:00;;;;;;;54.65;33.08;;;10.60;38.70;;;;;;5002567;28;20407;-71
2021/03/10 10:10:26;;;;;;;57.22;32.97;;;10.70;38.90;;;;;;5006999;28;20416;-72
2021/03/10 10:12:54;;;;;;;55.00;33.10;;;11.00;37.70;;;;;;5009803;28;20420;-72
2021/03/10 10:15:22;;;;;;;58.53;33.33;;;11.10;37.10;;;;;;5010830;28;20405;-71
2021/03/10 10:17:50;;;;;;;53.75;33.50;;;11.10;38.20;;;;;;5025688;28;20450;-72
2021/03/10 10:20:18;;;;;;;55.45;34.08;;;11.20;35.90;;;;;;5010195;28;20408;-73
2021/03/10 10:22:44;;;;;;;53.35;33.03;;;11.30;35.10;;;;;;5010371;28;20420;-73
2021/03/10 10:25:12;;;;;;;55.42;33.95;;;11.40;34.40;;;;;;5009677;28;20420;-73
2021/03/10 10:27:40;;;;;;;54.58;33.85;;;11.50;34.90;;;;;;5009905;28;20412;-73
2021/03/10 10:30:07;;;;;;;57.15;33.50;;;11.70;34.60;;;;;;5009854;28;20479;-71
2021/03/10 10:32:35;;;;;;;55.28;34.33;;;11.80;33.80;;;;;;4991757;28;20412;-73
2021/03/10 10:35:48;;;;;;;53.33;33.05;;;11.90;33.30;;;;;;5010682;28;20870;-74
2021/03/10 10:38:13;;;;;;;60.15;32.83;;;12.00;32.10;;;;;;4998935;28;20424;-73
2021/03/10 10:40:39;;;;;;;54.53;33.53;;;11.90;32.20;;;;;;5015331;28;20398;-72
2021/03/10 10:43:07;;;;;;;58.67;33.25;;;12.00;31.60;;;;;;5009727;28;20404;-72
2021/03/10 10:45:33;;;;;;;51.13;32.15;;;12.30;31.20;;;;;;5007024;28;20414;-72
2021/03/10 10:47:58;;;;;;;55.53;33.50;;;12.40;28.80;;;;;;5013356;28;20399;-71
2021/03/10 10:50:25;;;;;;;54.97;33.00;;;12.30;29.60;;;;;;5008959;28;20401;-73
2021/03/10 10:52:51;;;;;;;58.25;32.53;;;12.30;29.10;;;;;;5009503;28;20882;-72
2021/03/10 10:55:18;;;;;;;59.03;32.88;;;12.30;29.10;;;;;;5011175;28;20439;-72
2021/03/10 10:57:45;;;;;;;56.20;32.33;;;12.10;28.90;;;;;;5019496;28;20402;-73
2021/03/10 11:00:16;;;;;;;52.85;32.78;;;12.00;29.70;;;;;;5026422;28;20391;-73
2021/03/10 11:02:42;;;;;;;48.90;30.93;;;12.10;29.90;;;;;;5019822;28;20412;-73
2021/03/10 11:05:08;;;;;;;51.67;31.63;;;12.20;29.30;;;;;;5010647;28;20397;-72
2021/03/10 11:07:34;;;;;;;51.78;33.10;;;12.40;28.50;;;;;;5011040;28;20397;-72
2021/03/10 11:09:59;;;;;;;53.63;30.87;;;12.40;29.20;;;;;;5010059;28;20752;-71
2021/03/10 11:12:25;;;;;;;49.80;30.00;;;12.70;27.50;;;;;;5010129;28;20400;-73
2021/03/10 11:14:51;;;;;;;47.97;29.15;;;12.50;26.60;;;;;;5010489;28;20982;-72
2021/03/10 11:17:16;;;;;;;56.00;31.73;;;12.50;26.90;;;;;;5010423;28;20795;-73
2021/03/10 11:19:42;;;;;;;51.05;30.70;;;12.60;26.80;;;;;;5009812;28;20389;-73
2021/03/10 11:22:08;;;;;;;48.03;30.17;;;12.60;27.10;;;;;;5014395;28;20461;-71
2021/03/10 11:24:36;;;;;;;50.63;28.87;;;12.60;25.60;;;;;;5010033;28;20452;-73
2021/03/10 11:27:03;;;;;;;48.80;30.20;;;12.50;25.80;;;;;;5015019;28;20754;-71
2021/03/10 11:29:29;;;;;;;49.30;28.13;;;12.70;26.10;;;;;;5011513;28;20789;-72
2021/03/10 11:31:55;;;;;;;51.17;29.60;;;12.80;24.20;;;;;;4996179;28;20839;-72
2021/03/10 11:34:21;;;;;;;48.67;29.60;;;12.80;24.00;;;;;;4994113;28;20408;-72
2021/03/10 11:36:47;;;;;;;45.85;28.13;;;12.90;24.20;;;;;;5023398;28;20391;-72
2021/03/10 11:39:14;;;;;;;49.03;28.30;;;13.00;23.60;;;;;;5032301;28;20386;-72
2021/03/10 11:41:39;;;;;;;42.00;26.85;;;13.20;22.70;;;;;;5014738;28;20423;-72
2021/03/10 11:44:06;;;;;;;45.93;26.50;;;13.20;21.00;;;;;;5011898;28;20500;-73
2021/03/10 11:46:31;;;;;;;43.40;26.00;;;13.30;21.90;;;;;;5021694;28;20387;-72
2021/03/10 11:48:57;;;;;;;47.83;28.70;;;13.30;22.20;;;;;;5026904;28;20415;-71
2021/03/10 11:51:23;;;;;;;40.70;25.17;;;13.40;22.70;;;;;;5015563;28;20407;-71
2021/03/10 11:53:48;;;;;;;42.40;25.77;;;13.50;21.50;;;;;;5019890;28;20391;-73
2021/03/10 11:56:14;;;;;;;41.37;24.80;;;13.50;20.10;;;;;;5015369;28;20416;-72
2021/03/10 11:58:40;;;;;;;40.47;25.55;;;13.50;20.80;;;;;;5032584;28;20434;-73
2021/03/10 12:01:06;;;;;;;39.87;24.50;;;13.30;20.40;;;;;;5006882;28;20421;-73
2021/03/10 12:03:34;;;;;;;40.40;23.65;;;13.20;21.40;;;;;;5022837;28;20401;-73
2021/03/10 12:06:00;;;;;;;38.72;23.00;;;13.60;20.00;;;;;;5024484;28;20398;-71
2021/03/10 12:08:26;;;;;;;37.50;22.95;;;13.60;19.60;;;;;;5033000;28;20401;-73
2021/03/10 12:10:51;;;;;;;36.53;22.65;;;13.70;19.50;;;;;;5022183;28;20389;-73
2021/03/10 12:13:17;;;;;;;40.57;23.20;;;13.70;18.90;;;;;;5015423;28;20466;-72
2021/03/10 12:15:43;;;;;;;35.70;23.03;;;13.80;18.70;;;;;;5021618;28;20407;-72
2021/03/10 12:18:11;;;;;;;41.87;23.77;;;14.00;18.50;;;;;;5032917;28;20413;-71
2021/03/10 12:20:37;;;;;;;39.58;23.75;;;13.90;18.30;;;;;;5020160;28;20403;-72
2021/03/10 12:23:02;;;;;;;40.38;24.55;;;14.00;19.20;;;;;;5027880;28;20399;-72
2021/03/10 12:25:31;;;;;;;40.13;24.20;;;14.00;19.20;;;;;;5023755;28;20392;-73
2021/03/10 12:27:57;;;;;;;36.03;21.45;;;14.00;18.30;;;;;;5032010;28;20398;-72
2021/03/10 12:30:23;;;;;;;32.13;21.45;;;14.00;17.60;;;;;;5017715;28;20487;-74
2021/03/10 12:32:49;;;;;;;31.42;20.33;;;13.80;18.70;;;;;;5013647;28;20492;-72
2021/03/10 12:35:15;;;;;;;34.78;20.95;;;13.80;17.60;;;;;;5013143;28;20819;-72
2021/03/10 12:37:41;;;;;;;32.92;19.98;;;13.80;17.90;;;;;;5012465;28;20870;-74
2021/03/10 12:40:07;;;;;;;31.57;20.00;;;13.90;17.80;;;;;;4999663;28;20393;-72
2021/03/10 12:42:33;;;;;;;36.95;19.63;;;14.00;17.40;;;;;;5023808;28;20899;-73